sensor_id;sensor_type;location;lat;lon;timestamp;pressure;altitude;pressure_sealevel;temperature;humidity
67842;BME280;54642;59.126;37.876;2023-09-30T00:02:14;99993.66;;;16.19;79.29
67842;BME280;54642;59.126;37.876;2023-09-30T00:04:40;99994.41;;;16.23;78.71
67842;BME280;54642;59.126;37.876;2023-09-30T00:07:06;100000.50;;;16.23;78.35
67842;BME280;54642;59.126;37.876;2023-09-30T00:09:33;99991.19;;;16.13;78.56
67842;BME280;54642;59.126;37.876;2023-09-30T00:11:59;100012.91;;;16.15;78.42
67842;BME280;54642;59.126;37.876;2023-09-30T00:14:25;99996.69;;;16.04;78.89
67842;BME280;54642;59.126;37.876;2023-09-30T00:16:51;100006.16;;;16.08;78.74
67842;BME280;54642;59.126;37.876;2023-09-30T00:19:17;99989.09;;;15.96;78.38
67842;BME280;54642;59.126;37.876;2023-09-30T00:21:43;99999.34;;;16.02;78.30
67842;BME280;54642;59.126;37.876;2023-09-30T00:24:09;99969.31;;;15.86;78.72
67842;BME280;54642;59.126;37.876;2023-09-30T00:26:35;99995.31;;;15.92;78.55
67842;BME280;54642;59.126;37.876;2023-09-30T00:29:01;99978.94;;;15.85;78.76
67842;BME280;54642;59.126;37.876;2023-09-30T00:31:31;100007.31;;;15.99;78.71
67842;BME280;54642;59.126;37.876;2023-09-30T00:33:57;99997.69;;;15.99;78.54
67842;BME280;54642;59.126;37.876;2023-09-30T00:36:24;99987.59;;;15.87;78.72
67842;BME280;54642;59.126;37.876;2023-09-30T00:38:49;100002.31;;;15.90;78.28
67842;BME280;54642;59.126;37.876;2023-09-30T00:41:15;100006.59;;;15.92;78.11
67842;BME280;54642;59.126;37.876;2023-09-30T00:43:41;100001.38;;;15.92;77.97
67842;BME280;54642;59.126;37.876;2023-09-30T00:46:25;99992.84;;;15.86;78.61
67842;BME280;54642;59.126;37.876;2023-09-30T00:48:53;99998.84;;;15.89;78.74
67842;BME280;54642;59.126;37.876;2023-09-30T00:51:21;99984.28;;;15.80;78.44
67842;BME280;54642;59.126;37.876;2023-09-30T00:53:47;99999.78;;;15.87;78.75
67842;BME280;54642;59.126;37.876;2023-09-30T00:56:13;99999.06;;;15.81;78.57
67842;BME280;54642;59.126;37.876;2023-09-30T00:58:39;99991.34;;;15.77;78.81
67842;BME280;54642;59.126;37.876;2023-09-30T01:01:05;99980.25;;;15.67;78.47
67842;BME280;54642;59.126;37.876;2023-09-30T01:03:32;99993.19;;;15.72;78.65
67842;BME280;54642;59.126;37.876;2023-09-30T01:05:58;99980.25;;;15.67;78.70
67842;BME280;54642;59.126;37.876;2023-09-30T01:08:24;99991.59;;;15.66;78.71
67842;BME280;54642;59.126;37.876;2023-09-30T01:10:50;99998.41;;;15.72;78.61
67842;BME280;54642;59.126;37.876;2023-09-30T01:13:16;99993.13;;;15.75;79.30
67842;BME280;54642;59.126;37.876;2023-09-30T01:15:44;99954.31;;;15.59;78.71
67842;BME280;54642;59.126;37.876;2023-09-30T01:18:12;99979.28;;;15.71;78.96
67842;BME280;54642;59.126;37.876;2023-09-30T01:20:38;99975.81;;;15.71;78.97
67842;BME280;54642;59.126;37.876;2023-09-30T01:23:04;99962.13;;;15.61;79.01
67842;BME280;54642;59.126;37.876;2023-09-30T01:25:30;99990.53;;;15.73;78.81
67842;BME280;54642;59.126;37.876;2023-09-30T01:27:58;99976.66;;;15.71;78.68
67842;BME280;54642;59.126;37.876;2023-09-30T01:30:26;99962.16;;;15.59;79.07
67842;BME280;54642;59.126;37.876;2023-09-30T01:32:51;99956.03;;;15.62;79.16
67842;BME280;54642;59.126;37.876;2023-09-30T01:35:19;99972.31;;;15.70;78.79
67842;BME280;54642;59.126;37.876;2023-09-30T01:37:44;99948.91;;;15.67;78.80
67842;BME280;54642;59.126;37.876;2023-09-30T01:40:11;99973.84;;;15.79;78.73
67842;BME280;54642;59.126;37.876;2023-09-30T01:42:37;99962.59;;;15.77;78.73
67842;BME280;54642;59.126;37.876;2023-09-30T01:45:04;99976.91;;;15.95;78.86
67842;BME280;54642;59.126;37.876;2023-09-30T01:47:30;99950.22;;;15.84;78.64
67842;BME280;54642;59.126;37.876;2023-09-30T01:49:57;99957.94;;;15.88;78.69
67842;BME280;54642;59.126;37.876;2023-09-30T01:52:23;99970.63;;;16.00;78.63
67842;BME280;54642;59.126;37.876;2023-09-30T01:54:49;99965.47;;;15.99;78.85
67842;BME280;54642;59.126;37.876;2023-09-30T01:57:15;99945.59;;;15.93;78.25
67842;BME280;54642;59.126;37.876;2023-09-30T01:59:40;99951.66;;;15.95;78.10
67842;BME280;54642;59.126;37.876;2023-09-30T02:02:06;99949.19;;;15.89;77.99
67842;BME280;54642;59.126;37.876;2023-09-30T02:04:33;99968.28;;;15.91;77.99
67842;BME280;54642;59.126;37.876;2023-09-30T02:06:59;99936.50;;;15.74;78.40
67842;BME280;54642;59.126;37.876;2023-09-30T02:09:26;99955.53;;;15.80;78.19
67842;BME280;54642;59.126;37.876;2023-09-30T02:11:53;99953.09;;;15.73;78.43
67842;BME280;54642;59.126;37.876;2023-09-30T02:14:20;99957.41;;;15.74;78.66
67842;BME280;54642;59.126;37.876;2023-09-30T02:16:46;99956.53;;;15.76;78.39
67842;BME280;54642;59.126;37.876;2023-09-30T02:19:12;99945.31;;;15.71;78.16
67842;BME280;54642;59.126;37.876;2023-09-30T02:21:38;99931.66;;;15.61;78.12
67842;BME280;54642;59.126;37.876;2023-09-30T02:24:05;99930.75;;;15.62;78.36
67842;BME280;54642;59.126;37.876;2023-09-30T02:26:32;99951.50;;;15.69;78.78
67842;BME280;54642;59.126;37.876;2023-09-30T02:28:58;99939.38;;;15.64;78.58
67842;BME280;54642;59.126;37.876;2023-09-30T02:31:24;99918.06;;;15.49;78.64
67842;BME280;54642;59.126;37.876;2023-09-30T02:33:50;99927.41;;;15.57;78.47
67842;BME280;54642;59.126;37.876;2023-09-30T02:36:16;99942.00;;;15.64;78.45
67842;BME280;54642;59.126;37.876;2023-09-30T02:38:42;99938.47;;;15.67;78.55
67842;BME280;54642;59.126;37.876;2023-09-30T02:41:09;99918.59;;;15.61;78.25
67842;BME280;54642;59.126;37.876;2023-09-30T02:43:34;99911.66;;;15.60;78.56
67842;BME280;54642;59.126;37.876;2023-09-30T02:46:00;99915.16;;;15.59;78.47
67842;BME280;54642;59.126;37.876;2023-09-30T02:48:26;99915.06;;;15.62;78.78
67842;BME280;54642;59.126;37.876;2023-09-30T02:50:53;99931.38;;;15.72;78.70
67842;BME280;54642;59.126;37.876;2023-09-30T02:53:20;99911.72;;;15.57;78.26
67842;BME280;54642;59.126;37.876;2023-09-30T02:55:46;99920.47;;;15.56;78.78
67842;BME280;54642;59.126;37.876;2023-09-30T02:58:12;99919.59;;;15.56;78.29
67842;BME280;54642;59.126;37.876;2023-09-30T03:00:38;99917.09;;;15.53;78.85
67842;BME280;54642;59.126;37.876;2023-09-30T03:03:04;99926.25;;;15.68;79.19
67842;BME280;54642;59.126;37.876;2023-09-30T03:05:30;99929.56;;;15.76;79.35
67842;BME280;54642;59.126;37.876;2023-09-30T03:08:04;99916.22;;;15.85;78.82
67842;BME280;54642;59.126;37.876;2023-09-30T03:10:33;99889.00;;;15.92;79.10
67842;BME280;54642;59.126;37.876;2023-09-30T03:12:59;99902.19;;;16.17;78.81
67842;BME280;54642;59.126;37.876;2023-09-30T03:15:28;99915.69;;;16.32;78.00
67842;BME280;54642;59.126;37.876;2023-09-30T03:17:58;99904.72;;;16.20;77.71
67842;BME280;54642;59.126;37.876;2023-09-30T03:20:25;99891.13;;;16.08;78.03
67842;BME280;54642;59.126;37.876;2023-09-30T03:22:52;99898.84;;;16.12;78.24
67842;BME280;54642;59.126;37.876;2023-09-30T03:25:20;99882.59;;;16.03;77.68
67842;BME280;54642;59.126;37.876;2023-09-30T03:27:48;99887.16;;;15.96;77.68
67842;BME280;54642;59.126;37.876;2023-09-30T03:30:15;99888.09;;;15.93;78.35
67842;BME280;54642;59.126;37.876;2023-09-30T03:32:42;99904.94;;;16.13;77.97
67842;BME280;54642;59.126;37.876;2023-09-30T03:35:11;99887.44;;;16.15;77.79
67842;BME280;54642;59.126;37.876;2023-09-30T03:37:46;99888.31;;;16.15;77.93
67842;BME280;54642;59.126;37.876;2023-09-30T03:40:13;99883.94;;;16.16;77.57
67842;BME280;54642;59.126;37.876;2023-09-30T03:42:41;99895.91;;;16.23;78.17
67842;BME280;54642;59.126;37.876;2023-09-30T03:45:10;99898.25;;;16.32;77.87
67842;BME280;54642;59.126;37.876;2023-09-30T03:47:40;99850.97;;;16.12;77.29
67842;BME280;54642;59.126;37.876;2023-09-30T03:50:06;99885.38;;;16.26;77.86
67842;BME280;54642;59.126;37.876;2023-09-30T03:52:41;99885.50;;;16.22;77.42
67842;BME280;54642;59.126;37.876;2023-09-30T03:55:13;99894.94;;;16.26;77.73
67842;BME280;54642;59.126;37.876;2023-09-30T03:57:44;99897.72;;;16.21;77.75
67842;BME280;54642;59.126;37.876;2023-09-30T04:00:16;99875.19;;;16.17;78.02
67842;BME280;54642;59.126;37.876;2023-09-30T04:02:45;99889.78;;;16.24;77.82
67842;BME280;54642;59.126;37.876;2023-09-30T04:05:14;99881.38;;;16.14;77.11
67842;BME280;54642;59.126;37.876;2023-09-30T04:07:40;99870.38;;;16.03;76.85
67842;BME280;54642;59.126;37.876;2023-09-30T04:10:08;99891.09;;;16.09;77.11
67842;BME280;54642;59.126;37.876;2023-09-30T04:12:34;99893.09;;;16.01;77.19
67842;BME280;54642;59.126;37.876;2023-09-30T04:15:01;99878.69;;;15.88;77.25
67842;BME280;54642;59.126;37.876;2023-09-30T04:17:30;99871.72;;;15.88;77.63
67842;BME280;54642;59.126;37.876;2023-09-30T04:19:56;99870.78;;;15.89;77.97
67842;BME280;54642;59.126;37.876;2023-09-30T04:22:22;99858.72;;;15.85;77.76
67842;BME280;54642;59.126;37.876;2023-09-30T04:24:50;99877.63;;;15.93;77.44
67842;BME280;54642;59.126;37.876;2023-09-30T04:27:16;99855.41;;;15.80;77.77
67842;BME280;54642;59.126;37.876;2023-09-30T04:29:42;99842.69;;;15.66;77.75
67842;BME280;54642;59.126;37.876;2023-09-30T04:32:08;99873.50;;;15.86;77.83
67842;BME280;54642;59.126;37.876;2023-09-30T04:34:35;99838.25;;;15.70;78.00
67842;BME280;54642;59.126;37.876;2023-09-30T04:37:01;99857.00;;;15.84;78.15
67842;BME280;54642;59.126;37.876;2023-09-30T04:39:27;99881.94;;;15.96;77.91
67842;BME280;54642;59.126;37.876;2023-09-30T04:41:53;99841.59;;;15.75;77.70
67842;BME280;54642;59.126;37.876;2023-09-30T04:44:20;99855.91;;;15.91;78.15
67842;BME280;54642;59.126;37.876;2023-09-30T04:46:48;99865.13;;;16.05;78.07
67842;BME280;54642;59.126;37.876;2023-09-30T04:49:14;99818.63;;;15.86;77.94
67842;BME280;54642;59.126;37.876;2023-09-30T04:51:42;99867.34;;;16.17;77.69
67842;BME280;54642;59.126;37.876;2023-09-30T04:54:09;99873.19;;;16.25;77.64
67842;BME280;54642;59.126;37.876;2023-09-30T04:56:36;99861.97;;;16.22;77.80
67842;BME280;54642;59.126;37.876;2023-09-30T04:59:02;99850.84;;;16.15;78.49
67842;BME280;54642;59.126;37.876;2023-09-30T05:01:29;99851.56;;;16.20;78.63
67842;BME280;54642;59.126;37.876;2023-09-30T05:03:55;99875.06;;;16.48;78.62
67842;BME280;54642;59.126;37.876;2023-09-30T05:06:21;99867.13;;;16.51;78.47
67842;BME280;54642;59.126;37.876;2023-09-30T05:08:47;99880.88;;;16.58;78.20
67842;BME280;54642;59.126;37.876;2023-09-30T05:11:14;99872.19;;;16.56;78.47
67842;BME280;54642;59.126;37.876;2023-09-30T05:13:40;99867.97;;;16.78;78.18
67842;BME280;54642;59.126;37.876;2023-09-30T05:16:06;99868.19;;;16.99;76.35
67842;BME280;54642;59.126;37.876;2023-09-30T05:18:33;99866.09;;;17.09;75.89
67842;BME280;54642;59.126;37.876;2023-09-30T05:20:59;99865.25;;;17.08;75.39
67842;BME280;54642;59.126;37.876;2023-09-30T05:23:26;99861.72;;;17.09;75.33
67842;BME280;54642;59.126;37.876;2023-09-30T05:25:52;99850.88;;;16.95;75.22
67842;BME280;54642;59.126;37.876;2023-09-30T05:28:20;99860.28;;;17.01;75.46
67842;BME280;54642;59.126;37.876;2023-09-30T05:30:46;99831.97;;;16.87;74.73
67842;BME280;54642;59.126;37.876;2023-09-30T05:33:12;99860.50;;;16.94;74.94
67842;BME280;54642;59.126;37.876;2023-09-30T05:35:40;99853.50;;;16.95;74.58
67842;BME280;54642;59.126;37.876;2023-09-30T05:38:07;99834.47;;;16.90;74.47
67842;BME280;54642;59.126;37.876;2023-09-30T05:40:33;99845.81;;;16.90;74.61
67842;BME280;54642;59.126;37.876;2023-09-30T05:42:59;99857.13;;;16.91;74.82
67842;BME280;54642;59.126;37.876;2023-09-30T05:45:26;99830.25;;;16.86;74.65
67842;BME280;54642;59.126;37.876;2023-09-30T05:47:54;99852.75;;;17.17;73.96
67842;BME280;54642;59.126;37.876;2023-09-30T05:50:21;99841.69;;;17.33;73.55
67842;BME280;54642;59.126;37.876;2023-09-30T05:52:52;99836.16;;;17.41;73.20
67842;BME280;54642;59.126;37.876;2023-09-30T05:55:19;99835.84;;;17.49;72.62
67842;BME280;54642;59.126;37.876;2023-09-30T05:57:48;99827.03;;;17.51;73.58
67842;BME280;54642;59.126;37.876;2023-09-30T06:00:16;99824.38;;;17.53;73.40
67842;BME280;54642;59.126;37.876;2023-09-30T06:02:56;99815.81;;;17.48;73.87
67842;BME280;54642;59.126;37.876;2023-09-30T06:05:22;99832.03;;;17.58;73.90
67842;BME280;54642;59.126;37.876;2023-09-30T06:07:49;99812.47;;;17.44;74.71
67842;BME280;54642;59.126;37.876;2023-09-30T06:10:15;99814.25;;;17.44;75.43
67842;BME280;54642;59.126;37.876;2023-09-30T06:12:51;99806.88;;;17.30;75.06
67842;BME280;54642;59.126;37.876;2023-09-30T06:15:21;99822.34;;;17.36;75.23
67842;BME280;54642;59.126;37.876;2023-09-30T06:17:55;99818.84;;;17.37;74.68
67842;BME280;54642;59.126;37.876;2023-09-30T06:20:21;99818.00;;;17.37;75.62
67842;BME280;54642;59.126;37.876;2023-09-30T06:22:48;99797.19;;;17.32;74.77
67842;BME280;54642;59.126;37.876;2023-09-30T06:25:20;99815.13;;;17.43;74.92
67842;BME280;54642;59.126;37.876;2023-09-30T06:27:48;99799.88;;;17.30;74.78
67842;BME280;54642;59.126;37.876;2023-09-30T06:30:15;99809.50;;;17.30;74.74
67842;BME280;54642;59.126;37.876;2023-09-30T06:32:45;99815.22;;;17.16;74.74
67842;BME280;54642;59.126;37.876;2023-09-30T06:35:11;99805.09;;;17.07;75.33
67842;BME280;54642;59.126;37.876;2023-09-30T06:37:37;99806.97;;;17.03;75.23
67842;BME280;54642;59.126;37.876;2023-09-30T06:40:09;99804.44;;;17.00;75.14
67842;BME280;54642;59.126;37.876;2023-09-30T06:42:37;99797.31;;;16.78;75.55
67842;BME280;54642;59.126;37.876;2023-09-30T06:45:04;99830.53;;;17.03;75.68
67842;BME280;54642;59.126;37.876;2023-09-30T06:47:33;99820.63;;;17.11;75.19
67842;BME280;54642;59.126;37.876;2023-09-30T06:50:04;99820.25;;;17.22;75.03
67842;BME280;54642;59.126;37.876;2023-09-30T06:52:37;99791.97;;;17.08;74.90
67842;BME280;54642;59.126;37.876;2023-09-30T06:55:04;99781.22;;;16.91;74.74
67842;BME280;54642;59.126;37.876;2023-09-30T06:57:35;99792.94;;;17.04;75.01
67842;BME280;54642;59.126;37.876;2023-09-30T07:00:12;99790.59;;;17.22;74.94
67842;BME280;54642;59.126;37.876;2023-09-30T07:02:41;99793.53;;;17.36;75.22
67842;BME280;54642;59.126;37.876;2023-09-30T07:05:09;99797.44;;;17.49;75.01
67842;BME280;54642;59.126;37.876;2023-09-30T07:07:35;99792.94;;;17.53;74.88
67842;BME280;54642;59.126;37.876;2023-09-30T07:10:01;99763.47;;;17.46;74.54
67842;BME280;54642;59.126;37.876;2023-09-30T07:12:28;99790.00;;;17.61;74.85
67842;BME280;54642;59.126;37.876;2023-09-30T07:14:54;99789.97;;;17.62;74.85
67842;BME280;54642;59.126;37.876;2023-09-30T07:17:20;99786.59;;;17.59;74.40
67842;BME280;54642;59.126;37.876;2023-09-30T07:19:46;99779.38;;;17.65;74.93
67842;BME280;54642;59.126;37.876;2023-09-30T07:22:11;99771.00;;;17.78;74.61
67842;BME280;54642;59.126;37.876;2023-09-30T07:24:38;99757.84;;;17.79;73.87
67842;BME280;54642;59.126;37.876;2023-09-30T07:27:05;99764.91;;;17.77;73.97
67842;BME280;54642;59.126;37.876;2023-09-30T07:29:32;99771.69;;;17.83;74.33
67842;BME280;54642;59.126;37.876;2023-09-30T07:31:58;99776.00;;;17.85;74.30
67842;BME280;54642;59.126;37.876;2023-09-30T07:34:24;99771.72;;;17.81;74.28
67842;BME280;54642;59.126;37.876;2023-09-30T07:36:50;99776.78;;;17.87;73.87
67842;BME280;54642;59.126;37.876;2023-09-30T07:39:16;99739.75;;;17.73;73.98
67842;BME280;54642;59.126;37.876;2023-09-30T07:41:43;99762.97;;;17.82;74.01
67842;BME280;54642;59.126;37.876;2023-09-30T07:44:08;99776.78;;;17.87;74.03
67842;BME280;54642;59.126;37.876;2023-09-30T07:46:35;99779.47;;;17.84;73.44
67842;BME280;54642;59.126;37.876;2023-09-30T07:49:01;99774.59;;;17.75;73.86
67842;BME280;54642;59.126;37.876;2023-09-30T07:51:29;99772.03;;;17.73;74.19
67842;BME280;54642;59.126;37.876;2023-09-30T07:53:55;99769.09;;;17.81;74.52
67842;BME280;54642;59.126;37.876;2023-09-30T07:56:22;99762.78;;;17.88;74.20
67842;BME280;54642;59.126;37.876;2023-09-30T07:58:49;99748.97;;;17.83;74.15
67842;BME280;54642;59.126;37.876;2023-09-30T08:01:15;99757.53;;;17.88;73.79
67842;BME280;54642;59.126;37.876;2023-09-30T08:03:41;99755.56;;;17.94;73.98
67842;BME280;54642;59.126;37.876;2023-09-30T08:06:07;99756.72;;;17.85;74.00
67842;BME280;54642;59.126;37.876;2023-09-30T08:08:36;99741.53;;;17.72;74.04
67842;BME280;54642;59.126;37.876;2023-09-30T08:11:02;99761.97;;;17.85;73.96
67842;BME280;54642;59.126;37.876;2023-09-30T08:13:28;99752.41;;;17.85;73.78
67842;BME280;54642;59.126;37.876;2023-09-30T08:15:58;99753.31;;;17.83;73.60
67842;BME280;54642;59.126;37.876;2023-09-30T08:18:24;99731.94;;;17.71;74.21
67842;BME280;54642;59.126;37.876;2023-09-30T08:20:50;99753.38;;;17.81;74.00
67842;BME280;54642;59.126;37.876;2023-09-30T08:23:16;99757.97;;;17.76;74.40
67842;BME280;54642;59.126;37.876;2023-09-30T08:25:42;99758.19;;;17.70;74.33
67842;BME280;54642;59.126;37.876;2023-09-30T08:28:08;99752.47;;;17.60;74.50
67842;BME280;54642;59.126;37.876;2023-09-30T08:30:36;99743.09;;;17.55;74.62
67842;BME280;54642;59.126;37.876;2023-09-30T08:33:02;99730.53;;;17.41;74.26
67842;BME280;54642;59.126;37.876;2023-09-30T08:35:41;99726.38;;;17.35;74.83
67842;BME280;54642;59.126;37.876;2023-09-30T08:38:07;99745.16;;;17.46;74.79
67842;BME280;54642;59.126;37.876;2023-09-30T08:40:33;99738.75;;;17.53;75.16
67842;BME280;54642;59.126;37.876;2023-09-30T08:42:59;99707.13;;;17.36;74.95
67842;BME280;54642;59.126;37.876;2023-09-30T08:45:28;99733.34;;;17.58;74.91
67842;BME280;54642;59.126;37.876;2023-09-30T08:47:54;99736.75;;;17.60;75.15
67842;BME280;54642;59.126;37.876;2023-09-30T08:50:21;99721.88;;;17.61;75.08
67842;BME280;54642;59.126;37.876;2023-09-30T08:52:48;99692.03;;;17.43;74.66
67842;BME280;54642;59.126;37.876;2023-09-30T08:55:14;99723.34;;;17.68;75.18
67842;BME280;54642;59.126;37.876;2023-09-30T08:57:41;99715.31;;;17.72;74.96
67842;BME280;54642;59.126;37.876;2023-09-30T09:00:09;99715.13;;;17.77;74.79
67842;BME280;54642;59.126;37.876;2023-09-30T09:02:37;99712.38;;;17.80;74.50
67842;BME280;54642;59.126;37.876;2023-09-30T09:05:04;99708.97;;;17.78;74.64
67842;BME280;54642;59.126;37.876;2023-09-30T09:07:32;99706.28;;;17.80;74.72
67842;BME280;54642;59.126;37.876;2023-09-30T09:10:09;99712.31;;;17.82;74.96
67842;BME280;54642;59.126;37.876;2023-09-30T09:12:39;99696.97;;;17.72;74.82
67842;BME280;54642;59.126;37.876;2023-09-30T09:15:07;99713.09;;;17.84;74.88
67842;BME280;54642;59.126;37.876;2023-09-30T09:17:42;99711.31;;;17.86;74.98
67842;BME280;54642;59.126;37.876;2023-09-30T09:20:09;99696.66;;;17.80;75.04
67842;BME280;54642;59.126;37.876;2023-09-30T09:22:43;99668.06;;;17.74;74.74
67842;BME280;54642;59.126;37.876;2023-09-30T09:25:10;99703.78;;;17.99;74.50
67842;BME280;54642;59.126;37.876;2023-09-30T09:27:37;99703.50;;;18.06;74.62
67842;BME280;54642;59.126;37.876;2023-09-30T09:33:04;99702.22;;;18.15;74.41
67842;BME280;54642;59.126;37.876;2023-09-30T09:35:31;99683.09;;;18.13;74.13
67842;BME280;54642;59.126;37.876;2023-09-30T09:38:02;99673.38;;;18.15;74.02
67842;BME280;54642;59.126;37.876;2023-09-30T09:40:34;99667.91;;;18.21;73.80
67842;BME280;54642;59.126;37.876;2023-09-30T09:43:02;99654.78;;;18.21;74.23
67842;BME280;54642;59.126;37.876;2023-09-30T09:45:34;99679.03;;;18.47;73.98
67842;BME280;54642;59.126;37.876;2023-09-30T09:48:01;99655.69;;;18.41;73.69
67842;BME280;54642;59.126;37.876;2023-09-30T09:50:27;99639.09;;;18.40;73.53
67842;BME280;54642;59.126;37.876;2023-09-30T09:52:54;99660.78;;;18.64;73.58
67842;BME280;54642;59.126;37.876;2023-09-30T09:55:22;99641.56;;;18.64;73.41
67842;BME280;54642;59.126;37.876;2023-09-30T09:57:49;99636.84;;;18.71;73.12
67842;BME280;54642;59.126;37.876;2023-09-30T10:00:23;99641.06;;;18.75;73.20
67842;BME280;54642;59.126;37.876;2023-09-30T10:02:50;99650.81;;;18.92;72.73
67842;BME280;54642;59.126;37.876;2023-09-30T10:05:18;99639.59;;;18.88;73.00
67842;BME280;54642;59.126;37.876;2023-09-30T10:07:51;99655.88;;;18.96;73.07
67842;BME280;54642;59.126;37.876;2023-09-30T10:10:19;99634.16;;;18.93;72.50
67842;BME280;54642;59.126;37.876;2023-09-30T10:12:45;99637.44;;;18.98;72.64
67842;BME280;54642;59.126;37.876;2023-09-30T10:18:04;99639.47;;;19.10;72.18
67842;BME280;54642;59.126;37.876;2023-09-30T10:20:31;99644.44;;;19.16;72.57
67842;BME280;54642;59.126;37.876;2023-09-30T10:23:29;99641.75;;;19.18;72.45
67842;BME280;54642;59.126;37.876;2023-09-30T10:28:38;99626.75;;;19.01;72.50
67842;BME280;54642;59.126;37.876;2023-09-30T10:31:21;99642.19;;;19.09;72.27
67842;BME280;54642;59.126;37.876;2023-09-30T10:36:33;99629.88;;;19.09;72.43
67842;BME280;54642;59.126;37.876;2023-09-30T10:38:59;99627.41;;;19.06;72.10
67842;BME280;54642;59.126;37.876;2023-09-30T10:41:49;99624.56;;;19.11;72.15
67842;BME280;54642;59.126;37.876;2023-09-30T10:46:51;99624.25;;;19.17;72.04
67842;BME280;54642;59.126;37.876;2023-09-30T10:49:29;99625.84;;;19.21;71.37
67842;BME280;54642;59.126;37.876;2023-09-30T10:51:58;99615.22;;;19.22;71.53
67842;BME280;54642;59.126;37.876;2023-09-30T10:54:32;99609.00;;;19.25;71.35
67842;BME280;54642;59.126;37.876;2023-09-30T10:57:01;99609.00;;;19.25;71.30
67842;BME280;54642;59.126;37.876;2023-09-30T10:59:29;99615.59;;;19.34;71.77
67842;BME280;54642;59.126;37.876;2023-09-30T11:02:00;99608.72;;;19.49;71.43
67842;BME280;54642;59.126;37.876;2023-09-30T11:04:26;99604.81;;;19.57;70.68
67842;BME280;54642;59.126;37.876;2023-09-30T11:06:55;99562.59;;;19.43;70.81
67842;BME280;54642;59.126;37.876;2023-09-30T11:09:22;99599.84;;;19.69;70.25
67842;BME280;54642;59.126;37.876;2023-09-30T11:11:52;99601.13;;;19.79;70.29
67842;BME280;54642;59.126;37.876;2023-09-30T11:14:31;99607.84;;;19.85;69.88
67842;BME280;54642;59.126;37.876;2023-09-30T11:16:57;99601.50;;;19.89;70.41
67842;BME280;54642;59.126;37.876;2023-09-30T11:19:25;99599.66;;;19.91;69.68
67842;BME280;54642;59.126;37.876;2023-09-30T11:21:54;99589.91;;;19.93;69.59
67842;BME280;54642;59.126;37.876;2023-09-30T11:24:24;99593.94;;;20.00;69.70
67842;BME280;54642;59.126;37.876;2023-09-30T11:26:54;99594.63;;;20.04;68.89
67842;BME280;54642;59.126;37.876;2023-09-30T11:29:21;99589.13;;;20.08;68.98
67842;BME280;54642;59.126;37.876;2023-09-30T11:31:48;99583.84;;;20.08;68.82
67842;BME280;54642;59.126;37.876;2023-09-30T11:34:17;99553.03;;;19.94;68.65
67842;BME280;54642;59.126;37.876;2023-09-30T11:36:49;99582.59;;;20.15;68.54
67842;BME280;54642;59.126;37.876;2023-09-30T11:39:22;99586.03;;;20.17;68.02
67842;BME280;54642;59.126;37.876;2023-09-30T11:41:52;99573.66;;;20.19;68.07
67842;BME280;54642;59.126;37.876;2023-09-30T11:44:18;99579.75;;;20.20;68.07
67842;BME280;54642;59.126;37.876;2023-09-30T11:46:58;99579.75;;;20.20;67.82
67842;BME280;54642;59.126;37.876;2023-09-30T11:49:39;99564.28;;;20.14;67.36
67842;BME280;54642;59.126;37.876;2023-09-30T11:52:08;99565.13;;;20.14;67.45
67842;BME280;54642;59.126;37.876;2023-09-30T11:54:37;99565.91;;;20.16;67.39
67842;BME280;54642;59.126;37.876;2023-09-30T11:57:05;99567.50;;;20.19;67.17
67842;BME280;54642;59.126;37.876;2023-09-30T11:59:31;99566.44;;;20.23;67.38
67842;BME280;54642;59.126;37.876;2023-09-30T12:01:57;99571.94;;;20.18;67.40
67842;BME280;54642;59.126;37.876;2023-09-30T12:04:24;99578.91;;;20.19;67.50
67842;BME280;54642;59.126;37.876;2023-09-30T12:06:50;99567.06;;;20.11;67.89
67842;BME280;54642;59.126;37.876;2023-09-30T12:09:17;99581.69;;;20.16;67.50
67842;BME280;54642;59.126;37.876;2023-09-30T12:11:51;99567.00;;;20.12;67.67
67842;BME280;54642;59.126;37.876;2023-09-30T12:14:17;99572.25;;;20.12;67.65
67842;BME280;54642;59.126;37.876;2023-09-30T12:16:43;99555.94;;;20.06;67.33
67842;BME280;54642;59.126;37.876;2023-09-30T12:19:14;99544.13;;;19.97;67.56
67842;BME280;54642;59.126;37.876;2023-09-30T12:21:41;99589.72;;;20.13;67.41
67842;BME280;54642;59.126;37.876;2023-09-30T12:24:08;99574.91;;;20.12;67.22
67842;BME280;54642;59.126;37.876;2023-09-30T12:26:39;99573.09;;;20.13;67.17
67842;BME280;54642;59.126;37.876;2023-09-30T12:29:07;99554.50;;;20.00;67.43
67842;BME280;54642;59.126;37.876;2023-09-30T12:31:36;99547.50;;;19.99;67.46
67842;BME280;54642;59.126;37.876;2023-09-30T12:34:02;99571.56;;;20.09;67.88
67842;BME280;54642;59.126;37.876;2023-09-30T12:36:28;99570.00;;;20.05;67.99
67842;BME280;54642;59.126;37.876;2023-09-30T12:38:54;99535.19;;;19.84;67.55
67842;BME280;54642;59.126;37.876;2023-09-30T12:41:20;99572.91;;;20.00;68.02
67842;BME280;54642;59.126;37.876;2023-09-30T12:43:46;99571.19;;;19.99;67.79
67842;BME280;54642;59.126;37.876;2023-09-30T12:46:12;99564.31;;;19.96;67.58
67842;BME280;54642;59.126;37.876;2023-09-30T12:48:40;99547.38;;;19.85;67.69
67842;BME280;54642;59.126;37.876;2023-09-30T12:51:06;99569.94;;;19.89;67.56
67842;BME280;54642;59.126;37.876;2023-09-30T12:53:35;99567.56;;;19.84;67.46
67842;BME280;54642;59.126;37.876;2023-09-30T12:56:01;99540.88;;;19.74;67.91
67842;BME280;54642;59.126;37.876;2023-09-30T12:58:27;99551.88;;;19.83;67.70
67842;BME280;54642;59.126;37.876;2023-09-30T13:00:56;99558.84;;;19.84;67.94
67842;BME280;54642;59.126;37.876;2023-09-30T13:03:23;99544.91;;;19.81;67.64
67842;BME280;54642;59.126;37.876;2023-09-30T13:05:49;99554.44;;;19.84;67.69
67842;BME280;54642;59.126;37.876;2023-09-30T13:08:16;99545.69;;;19.84;67.79